createdAt,value
2023-05-07T00:00:51.098Z,100499.00
2023-05-07T00:02:18.255Z,100499.69
2023-05-07T00:03:48.226Z,100499.00
2023-05-07T00:05:10.536Z,100493.28
2023-05-07T00:06:42.342Z,100495.63
2023-05-07T00:08:23.339Z,100493.78
2023-05-07T00:09:48.284Z,100489.59
2023-05-07T00:11:25.779Z,100488.41
2023-05-07T00:13:09.435Z,100485.03
2023-05-07T00:18:12.084Z,100505.91
2023-05-07T00:19:46.347Z,100496.31
2023-05-07T00:21:42.736Z,100506.38
2023-05-07T00:23:16.779Z,100491.25
2023-05-07T00:24:57.694Z,100495.63
2023-05-07T00:26:48.714Z,100494.63
2023-05-07T00:28:31.148Z,100493.63
2023-05-07T00:30:05.413Z,100514.94
2023-05-07T00:31:30.883Z,100500.00
2023-05-07T00:33:26.387Z,100500.16
2023-05-07T00:36:46.733Z,100496.47
2023-05-07T00:38:48.378Z,100495.63
2023-05-07T00:40:15.012Z,100506.72
2023-05-07T00:43:28.788Z,100500.81
2023-05-07T00:44:58.194Z,100511.41
2023-05-07T00:46:36.785Z,100522.50
2023-05-07T00:48:09.130Z,100501.84
2023-05-07T00:49:46.525Z,100506.53
2023-05-07T00:51:16.845Z,100507.06
2023-05-07T00:52:43.970Z,100512.25
2023-05-07T00:54:28.955Z,100505.22
2023-05-07T00:55:54.992Z,100501.50
2023-05-07T00:57:28.071Z,100507.56
2023-05-07T00:59:03.122Z,100534.28
2023-05-07T01:00:55.206Z,100504.38
2023-05-07T01:02:30.190Z,100515.81
2023-05-07T01:04:28.966Z,100501.00
2023-05-07T01:06:35.136Z,100517.47
2023-05-07T01:09:01.141Z,100508.53
2023-05-07T01:10:58.115Z,100525.69
2023-05-07T01:12:41.667Z,100519.28
2023-05-07T01:14:15.499Z,100516.94
2023-05-07T01:15:46.289Z,100515.91
2023-05-07T01:17:35.806Z,100524.34
2023-05-07T01:19:05.881Z,100510.53
2023-05-07T01:20:43.721Z,100521.28
2023-05-07T01:22:16.794Z,100518.31
2023-05-07T01:23:54.234Z,100519.63
2023-05-07T01:25:39.532Z,100531.06
2023-05-07T01:27:04.199Z,100511.22
2023-05-07T01:29:07.194Z,100513.91
2023-05-07T01:30:46.786Z,100512.38
2023-05-07T01:32:31.714Z,100522.47
2023-05-07T01:34:21.592Z,100515.06
2023-05-07T01:35:50.372Z,100511.50
2023-05-07T01:37:15.913Z,100531.34
2023-05-07T01:39:10.661Z,100533.53
2023-05-07T01:40:36.841Z,100534.22
2023-05-07T01:42:02.089Z,100515.84
2023-05-07T01:43:29.920Z,100529.78
2023-05-07T01:44:54.397Z,100532.47
2023-05-07T01:53:30.569Z,100532.91
2023-05-07T01:55:56.868Z,100523.81
2023-05-07T01:58:04.681Z,100535.59
2023-05-07T01:59:38.045Z,100537.28
2023-05-07T02:11:06.664Z,100547.72
2023-05-07T02:12:54.906Z,100534.22
2023-05-07T02:14:48.907Z,100529.88
2023-05-07T02:16:20.431Z,100546.00
2023-05-07T02:18:16.604Z,100560.97
2023-05-07T02:19:45.346Z,100541.81
2023-05-07T02:21:15.012Z,100543.31
2023-05-07T02:22:45.348Z,100535.94
2023-05-07T02:24:13.518Z,100557.09
2023-05-07T02:25:37.826Z,100548.53
2023-05-07T02:27:05.004Z,100537.75
2023-05-07T02:28:33.544Z,100536.75
2023-05-07T02:29:58.462Z,100532.22
2023-05-07T02:31:24.791Z,100537.44
2023-05-07T02:32:46.803Z,100539.44
2023-05-07T02:35:21.183Z,100555.78
2023-05-07T02:40:15.459Z,100560.47
2023-05-07T02:45:50.993Z,100556.75
2023-05-07T02:47:56.423Z,100562.81
2023-05-07T02:49:41.014Z,100568.19
2023-05-07T03:35:30.421Z,100588.75
2023-05-07T03:42:20.776Z,100584.84
2023-05-07T03:46:16.907Z,100589.75
2023-05-07T03:47:44.549Z,100590.25
2023-05-07T03:49:40.641Z,100581.84
2023-05-07T03:51:42.410Z,100598.16
2023-05-07T03:53:43.483Z,100604.03
2023-05-07T03:58:21.205Z,100597.47
2023-05-07T03:59:51.580Z,100619.22
2023-05-07T04:19:25.335Z,100644.41
2023-05-07T04:21:50.034Z,100642.53
2023-05-07T04:23:18.536Z,100629.06
2023-05-07T04:30:29.339Z,100658.41
2023-05-07T04:32:44.774Z,100663.63
2023-05-07T04:34:43.492Z,100645.75
2023-05-07T04:36:44.032Z,100666.00
2023-05-07T04:38:11.335Z,100652.31
2023-05-07T04:41:49.055Z,100656.00
2023-05-07T04:43:26.241Z,100650.50
2023-05-07T04:45:21.652Z,100655.88
2023-05-07T04:47:38.792Z,100677.78
2023-05-07T04:49:48.420Z,100656.75
2023-05-07T04:51:58.142Z,100657.31
2023-05-07T04:53:38.406Z,100657.50
2023-05-07T04:55:33.367Z,100670.19
2023-05-07T04:57:27.574Z,100666.81
2023-05-07T04:59:04.441Z,100669.19
2023-05-07T05:00:37.085Z,100679.44
2023-05-07T05:02:41.336Z,100666.13
2023-05-07T05:13:27.383Z,100701.59
2023-05-07T05:18:21.360Z,100704.94
2023-05-07T05:20:05.212Z,100699.38
2023-05-07T05:21:37.900Z,100709.66
2023-05-07T05:24:08.187Z,100702.56
2023-05-07T05:27:13.665Z,100724.78
2023-05-07T05:29:28.960Z,100700.84
2023-05-07T05:39:48.331Z,100707.81
2023-05-07T05:45:46.178Z,100704.66
2023-05-07T05:53:12.682Z,100725.47
2023-05-07T05:54:39.129Z,100727.72
2023-05-07T05:56:43.788Z,100724.41
2023-05-07T05:58:16.424Z,100718.53
2023-05-07T06:06:49.038Z,100719.19
2023-05-07T06:12:10.093Z,100738.06
2023-05-07T06:13:38.734Z,100731.81
2023-05-07T06:15:01.109Z,100743.75
2023-05-07T06:16:23.051Z,100722.22
2023-05-07T06:17:48.345Z,100741.56
2023-05-07T06:19:09.540Z,100734.34
2023-05-07T06:20:38.109Z,100739.88
2023-05-07T06:22:33.338Z,100745.09
2023-05-07T06:24:07.688Z,100756.56
2023-05-07T06:25:30.692Z,100756.22
2023-05-07T06:26:59.816Z,100746.09
2023-05-07T06:28:27.344Z,100751.16
2023-05-07T06:29:53.865Z,100748.47
2023-05-07T06:31:22.823Z,100759.22
2023-05-07T06:32:53.264Z,100755.88
2023-05-07T06:34:18.442Z,100755.19
2023-05-07T06:35:41.155Z,100762.50
2023-05-07T06:37:06.175Z,100766.50
2023-05-07T06:38:44.529Z,100763.16
2023-05-07T06:40:09.378Z,100762.28
2023-05-07T06:41:36.724Z,100766.81
2023-05-07T06:43:42.810Z,100746.41
2023-05-07T06:45:27.223Z,100756.06
2023-05-07T06:46:52.087Z,100764.84
2023-05-07T06:48:14.322Z,100754.53
2023-05-07T06:49:45.857Z,100777.47
2023-05-07T06:51:18.485Z,100787.06
2023-05-07T06:52:41.274Z,100771.56
2023-05-07T06:54:11.050Z,100776.97
2023-05-07T06:55:35.788Z,100784.03
2023-05-07T06:57:01.257Z,100787.72
2023-05-07T06:58:25.354Z,100787.72
2023-05-07T06:59:52.803Z,100783.63
2023-05-07T07:01:25.394Z,100784.31
2023-05-07T07:02:48.144Z,100773.50
2023-05-07T07:04:20.288Z,100793.88
2023-05-07T07:05:49.755Z,100781.78
2023-05-07T07:08:29.446Z,100797.94
2023-05-07T07:09:54.868Z,100775.22
2023-05-07T07:11:36.732Z,100787.16
2023-05-07T07:13:00.266Z,100788.56
2023-05-07T07:14:27.328Z,100803.22
2023-05-07T07:15:53.183Z,100786.72
2023-05-07T07:17:33.035Z,100792.97
2023-05-07T07:18:55.591Z,100813.31
2023-05-07T07:20:40.549Z,100811.16
2023-05-07T07:22:16.606Z,100796.81
2023-05-07T07:24:44.315Z,100818.75
2023-05-07T07:26:12.826Z,100811.31
2023-05-07T07:27:35.461Z,100794.81
2023-05-07T07:28:59.841Z,100800.94
2023-05-07T07:30:22.716Z,100799.66
2023-05-07T07:31:47.155Z,100798.75
2023-05-07T07:33:26.000Z,100801.78
2023-05-07T07:34:52.911Z,100798.34
2023-05-07T07:36:16.478Z,100802.94
2023-05-07T07:37:39.639Z,100816.53
2023-05-07T07:39:04.834Z,100814.69
2023-05-07T07:40:29.009Z,100815.28
2023-05-07T07:41:55.173Z,100805.66
2023-05-07T07:43:20.720Z,100803.69
2023-05-07T07:44:43.578Z,100825.16
2023-05-07T07:46:10.478Z,100810.94
2023-05-07T07:47:52.662Z,100820.00
2023-05-07T07:49:23.111Z,100836.09
2023-05-07T07:51:06.693Z,100842.56
2023-05-07T07:52:33.623Z,100821.81
2023-05-07T07:54:02.061Z,100831.03
2023-05-07T07:55:29.859Z,100840.75
2023-05-07T07:57:19.679Z,100842.38
2023-05-07T07:58:43.769Z,100824.25
2023-05-07T08:00:08.762Z,100842.50
2023-05-07T08:01:42.204Z,100837.84
2023-05-07T08:03:18.283Z,100847.84
2023-05-07T08:04:45.773Z,100827.16
2023-05-07T08:06:08.153Z,100844.19
2023-05-07T08:07:32.691Z,100842.53
2023-05-07T08:09:16.651Z,100855.69
2023-05-07T08:11:04.996Z,100852.84
2023-05-07T08:12:38.870Z,100843.25
2023-05-07T08:16:10.348Z,100848.16
2023-05-07T08:17:40.482Z,100838.25
2023-05-07T08:19:10.354Z,100849.88
2023-05-07T08:20:33.399Z,100847.84
2023-05-07T08:22:02.088Z,100841.13
2023-05-07T08:23:25.137Z,100860.00
2023-05-07T08:24:47.823Z,100858.81
2023-05-07T08:26:14.275Z,100862.50
2023-05-07T08:27:43.476Z,100853.25
2023-05-07T08:31:16.147Z,100873.81
2023-05-07T08:32:43.681Z,100884.91
2023-05-07T08:34:14.744Z,100878.00
2023-05-07T08:35:58.447Z,100894.53
2023-05-07T08:37:22.984Z,100877.53
2023-05-07T08:38:46.963Z,100859.50
2023-05-07T08:40:14.762Z,100861.00
2023-05-07T08:41:38.766Z,100884.09
2023-05-07T08:43:02.775Z,100876.50
2023-05-07T08:44:28.061Z,100866.41
2023-05-07T08:45:53.987Z,100877.84
2023-05-07T08:47:22.339Z,100888.66
2023-05-07T08:48:51.713Z,100876.31
2023-05-07T08:50:21.307Z,100892.19
2023-05-07T08:51:45.310Z,100887.97
2023-05-07T08:53:11.498Z,100889.31
2023-05-07T08:54:49.530Z,100877.34
2023-05-07T08:56:19.447Z,100896.06
2023-05-07T08:57:43.977Z,100886.13
2023-05-07T08:59:08.281Z,100904.31
2023-05-07T09:00:31.575Z,100895.69
2023-05-07T09:01:55.760Z,100908.53
2023-05-07T09:03:18.630Z,100903.09
2023-05-07T09:05:04.236Z,100892.16
2023-05-07T09:06:28.476Z,100906.97
2023-05-07T09:07:53.940Z,100889.47
2023-05-07T09:09:34.885Z,100896.03
2023-05-07T09:11:03.325Z,100903.97
2023-05-07T09:12:32.357Z,100905.81
2023-05-07T09:14:02.362Z,100905.31
2023-05-07T09:15:32.066Z,100893.78
2023-05-07T09:17:00.137Z,100884.31
2023-05-07T09:33:54.846Z,100885.31
2023-05-07T09:34:42.149Z,100887.53
2023-05-07T09:37:04.370Z,100897.97
2023-05-07T09:39:29.296Z,100893.94
2023-05-07T09:41:12.930Z,100903.22
2023-05-07T09:42:56.769Z,100912.81
2023-05-07T09:44:28.088Z,100901.03
2023-05-07T09:46:25.633Z,100909.44
2023-05-07T09:47:59.305Z,100893.13
2023-05-07T09:50:05.608Z,100891.59
2023-05-07T09:51:48.143Z,100905.47
2023-05-07T09:53:21.837Z,100913.75
2023-05-07T09:54:47.959Z,100894.13
2023-05-07T09:56:20.436Z,100911.16
2023-05-07T09:58:37.000Z,100906.03
2023-05-07T10:00:42.565Z,100913.25
2023-05-07T10:02:28.743Z,100915.34
2023-05-07T10:04:00.197Z,100917.94
2023-05-07T10:05:30.452Z,100907.69
2023-05-07T10:07:08.352Z,100903.69
2023-05-07T10:08:54.467Z,100919.41
2023-05-07T10:10:23.057Z,100914.16
2023-05-07T10:12:10.341Z,100907.88
2023-05-07T10:13:45.364Z,100907.22
2023-05-07T10:15:12.863Z,100915.38
2023-05-07T10:16:44.474Z,100919.53
2023-05-07T10:19:42.151Z,100926.19
2023-05-07T10:21:20.994Z,100925.91
2023-05-07T10:22:56.128Z,100927.53
2023-05-07T10:24:57.936Z,100924.75
2023-05-07T10:26:44.068Z,100931.97
2023-05-07T10:29:09.188Z,100910.66
2023-05-07T10:31:41.662Z,100911.47
2023-05-07T10:33:56.387Z,100915.28
2023-05-07T10:42:25.403Z,100921.94
2023-05-07T10:44:41.844Z,100934.72
2023-05-07T10:49:33.756Z,100937.50
2023-05-07T10:51:37.840Z,100933.34
2023-05-07T10:56:09.896Z,100917.50
2023-05-07T10:58:31.505Z,100937.94
2023-05-07T11:00:48.596Z,100921.03
2023-05-07T11:03:24.218Z,100920.94
2023-05-07T11:08:41.618Z,100920.28
2023-05-07T11:11:22.044Z,100933.06
2023-05-07T11:15:01.546Z,100929.16
2023-05-07T11:16:36.464Z,100934.03
2023-05-07T11:21:26.612Z,100933.66
2023-05-07T11:24:01.497Z,100921.91
2023-05-07T11:27:53.988Z,100929.00
2023-05-07T11:29:34.118Z,100942.44
2023-05-07T11:31:13.381Z,100935.25
2023-05-07T11:32:43.825Z,100942.34
2023-05-07T11:34:41.700Z,100942.81
2023-05-07T11:36:01.904Z,100939.81
2023-05-07T11:37:52.950Z,100951.19
2023-05-07T11:39:47.019Z,100945.09
2023-05-07T11:41:53.838Z,100945.78
2023-05-07T11:43:30.761Z,100953.25
2023-05-07T11:46:18.463Z,100959.13
2023-05-07T11:48:06.893Z,100944.75
2023-05-07T12:09:08.975Z,100959.53
2023-05-07T12:31:58.128Z,100990.56
2023-05-07T12:38:39.547Z,100985.94
2023-05-07T12:41:45.803Z,101015.28
2023-05-07T13:00:44.320Z,100999.09
2023-05-07T13:06:01.655Z,101002.56
2023-05-07T13:13:59.284Z,101003.56
2023-05-07T13:15:36.452Z,101015.53
2023-05-07T13:20:15.295Z,101025.41
2023-05-07T13:22:08.065Z,101019.53
2023-05-07T13:23:31.143Z,101023.13
2023-05-07T13:25:12.021Z,101019.91
2023-05-07T13:29:50.114Z,101030.97
2023-05-07T13:35:00.557Z,101036.31
2023-05-07T13:36:34.121Z,101035.38
2023-05-07T13:59:24.765Z,101010.00
2023-05-07T14:09:41.350Z,101032.03
2023-05-07T14:11:04.123Z,101036.78
2023-05-07T14:12:38.762Z,101020.91
2023-05-07T14:14:03.110Z,101036.75
2023-05-07T14:18:04.991Z,101034.72
2023-05-07T14:20:17.165Z,101032.03
2023-05-07T14:21:46.961Z,101032.34
2023-05-07T14:23:15.634Z,101029.75
2023-05-07T14:27:12.809Z,101021.31
2023-05-07T14:28:51.965Z,101025.44
2023-05-07T14:31:22.809Z,101035.34
2023-05-07T14:32:46.056Z,101041.91
2023-05-07T14:34:20.818Z,101028.56
2023-05-07T14:35:51.991Z,101039.34
2023-05-07T14:39:21.164Z,101040.66
2023-05-07T14:41:14.388Z,101044.38
2023-05-07T14:44:43.009Z,101033.78
2023-05-07T14:46:29.324Z,101039.19
2023-05-07T14:47:56.777Z,101039.06
2023-05-07T14:49:24.098Z,101063.69
2023-05-07T14:51:06.433Z,101049.88
2023-05-07T14:52:28.775Z,101055.31
2023-05-07T14:54:06.981Z,101061.41
2023-05-07T14:55:39.155Z,101062.81
2023-05-07T14:57:23.126Z,101048.31
2023-05-07T14:58:46.247Z,101044.13
2023-05-07T15:00:10.927Z,101052.19
2023-05-07T15:01:38.624Z,101036.53
2023-05-07T15:03:14.782Z,101035.19
2023-05-07T15:04:47.946Z,101052.91
2023-05-07T15:07:25.458Z,101057.31
2023-05-07T15:08:59.358Z,101054.31
2023-05-07T15:11:30.452Z,101057.34
2023-05-07T15:13:16.172Z,101061.91
2023-05-07T15:14:38.813Z,101061.91
2023-05-07T15:16:26.760Z,101058.38
2023-05-07T15:17:48.901Z,101049.59
2023-05-07T15:19:36.192Z,101059.22
2023-05-07T15:21:04.515Z,101062.75
2023-05-07T15:22:38.283Z,101064.59
2023-05-07T15:24:26.735Z,101065.44
2023-05-07T15:25:52.140Z,101060.06
2023-05-07T15:27:16.034Z,101064.75
2023-05-07T15:29:16.501Z,101070.34
2023-05-07T15:31:40.096Z,101074.25
2023-05-07T15:33:09.319Z,101069.19
2023-05-07T15:34:32.540Z,101072.91
2023-05-07T15:36:10.034Z,101065.16
2023-05-07T15:40:03.516Z,101053.19
2023-05-07T15:54:56.737Z,101062.09
2023-05-07T15:59:30.833Z,101056.00
2023-05-07T16:02:05.713Z,101043.16
2023-05-07T16:07:32.301Z,101057.66
2023-05-07T16:09:03.545Z,101058.16
2023-05-07T18:15:10.740Z,101115.50
2023-05-07T18:16:55.491Z,101113.91
2023-05-07T19:18:38.483Z,101182.63
2023-05-07T19:20:12.635Z,101169.41
2023-05-07T19:21:38.169Z,101190.00
2023-05-07T19:23:16.745Z,101189.31
2023-05-07T19:24:41.316Z,101191.84
2023-05-07T19:26:11.962Z,101184.22
2023-05-07T19:30:49.991Z,101195.97
2023-05-07T19:33:08.827Z,101175.91
2023-05-07T19:34:37.116Z,101196.69
2023-05-07T19:36:32.908Z,101178.75
2023-05-07T19:40:28.575Z,101201.34
2023-05-07T19:42:04.879Z,101195.28
2023-05-07T19:43:36.344Z,101198.13
2023-05-07T19:45:02.714Z,101193.03
2023-05-07T19:46:32.715Z,101198.88
2023-05-07T19:47:57.880Z,101212.41
2023-05-07T19:49:23.526Z,101208.16
2023-05-07T19:50:52.367Z,101203.09
2023-05-07T19:52:20.573Z,101203.22
2023-05-07T20:17:49.779Z,101218.44
2023-05-07T20:20:08.351Z,101224.50
2023-05-07T20:21:31.693Z,101215.06
2023-05-07T20:22:53.045Z,101214.34
2023-05-07T20:24:34.721Z,101218.28
2023-05-07T20:26:03.731Z,101216.44
2023-05-07T20:27:30.248Z,101222.41
2023-05-07T20:29:01.117Z,101211.94
2023-05-07T20:30:26.675Z,101209.09
2023-05-07T20:31:49.391Z,101223.97
2023-05-07T20:33:18.550Z,101220.25
2023-05-07T20:34:43.189Z,101209.81
2023-05-07T20:36:12.341Z,101207.53
2023-05-07T20:37:43.792Z,101220.13
2023-05-07T20:39:16.275Z,101225.38
2023-05-07T20:40:48.972Z,101208.25
2023-05-07T20:42:13.151Z,101208.25
2023-05-07T20:44:46.495Z,101228.91
2023-05-07T20:46:51.776Z,101203.16
2023-05-07T20:48:22.815Z,101228.19
2023-05-07T20:49:51.405Z,101225.63
2023-05-07T20:51:17.421Z,101225.09
2023-05-07T20:52:44.134Z,101230.88
2023-05-07T20:54:08.787Z,101228.50
2023-05-07T20:55:31.409Z,101229.34
2023-05-07T20:57:02.260Z,101232.84
2023-05-07T20:58:32.220Z,101235.41
2023-05-07T21:00:00.781Z,101229.03
2023-05-07T21:01:23.716Z,101229.47
2023-05-07T21:02:57.246Z,101241.91
2023-05-07T21:04:24.649Z,101244.59
2023-05-07T21:06:01.785Z,101248.00
2023-05-07T21:14:10.838Z,101257.94
2023-05-07T21:19:33.967Z,101243.81
2023-05-07T21:21:48.571Z,101258.66
2023-05-07T21:23:27.555Z,101262.16
2023-05-07T21:24:50.130Z,101234.91
2023-05-07T21:26:26.036Z,101249.03
2023-05-07T21:27:54.693Z,101252.53
2023-05-07T21:32:41.986Z,101253.94
2023-05-07T21:34:04.725Z,101248.69
2023-05-07T21:35:59.345Z,101255.03
2023-05-07T21:37:25.211Z,101260.81
2023-05-07T21:38:49.082Z,101254.91
2023-05-07T21:40:12.295Z,101266.31
2023-05-07T21:41:35.074Z,101269.28
2023-05-07T21:43:06.838Z,101271.25
2023-05-07T21:44:47.894Z,101254.16
2023-05-07T21:46:17.883Z,101263.03
2023-05-07T21:47:40.778Z,101266.56
2023-05-07T21:49:04.164Z,101264.44
2023-05-07T21:58:05.995Z,101268.19
2023-05-07T21:59:33.556Z,101264.81
2023-05-07T22:00:56.713Z,101270.28
2023-05-07T22:02:18.196Z,101267.75
2023-05-07T22:03:49.240Z,101264.47
2023-05-07T22:06:58.862Z,101252.88
2023-05-07T22:08:21.426Z,101253.88
2023-05-07T22:09:46.502Z,101258.69
2023-05-07T22:11:11.727Z,101264.19
2023-05-07T22:12:33.960Z,101268.09
2023-05-07T22:13:57.886Z,101252.59
2023-05-07T22:15:19.138Z,101251.88
2023-05-07T22:16:43.029Z,101261.75
2023-05-07T22:18:06.751Z,101260.47
2023-05-07T22:19:28.251Z,101260.63
2023-05-07T22:20:53.079Z,101267.09
2023-05-07T22:22:14.460Z,101262.69
2023-05-07T22:23:36.857Z,101261.03
2023-05-07T22:24:59.059Z,101267.22
2023-05-07T22:26:22.951Z,101258.63
2023-05-07T22:27:45.847Z,101257.91
2023-05-07T22:29:09.809Z,101249.41
2023-05-07T22:30:33.283Z,101248.28
2023-05-07T22:31:59.039Z,101251.94
2023-05-07T22:33:21.580Z,101250.34
2023-05-07T22:34:43.771Z,101246.38
2023-05-07T22:36:07.943Z,101250.50
2023-05-07T22:37:30.684Z,101244.19
2023-05-07T22:38:53.359Z,101244.19
2023-05-07T22:40:16.071Z,101246.75
2023-05-07T22:41:38.703Z,101250.44
2023-05-07T22:43:04.473Z,101250.44
2023-05-07T22:44:31.897Z,101238.28
2023-05-07T22:46:06.325Z,101232.47
2023-05-07T22:47:37.803Z,101243.75
2023-05-07T22:49:21.253Z,101246.44
2023-05-07T22:50:43.640Z,101232.28
2023-05-07T22:52:09.139Z,101228.06
2023-05-07T22:53:31.487Z,101239.06
2023-05-07T22:54:53.608Z,101240.78
2023-05-07T22:56:20.956Z,101246.41
2023-05-07T22:57:45.607Z,101240.31
2023-05-07T22:59:42.648Z,101237.88
2023-05-07T23:01:13.895Z,101247.75
2023-05-07T23:02:38.408Z,101246.91
2023-05-07T23:04:02.534Z,101227.38
2023-05-07T23:05:24.928Z,101232.88
2023-05-07T23:06:46.489Z,101241.22
2023-05-07T23:08:08.551Z,101241.22
2023-05-07T23:09:29.757Z,101237.25
2023-05-07T23:10:54.467Z,101245.88
2023-05-07T23:12:15.716Z,101250.50
2023-05-07T23:13:38.290Z,101252.34
2023-05-07T23:15:04.120Z,101253.31
2023-05-07T23:16:28.924Z,101258.66
2023-05-07T23:17:56.176Z,101247.50
2023-05-07T23:19:43.613Z,101258.06
2023-05-07T23:21:39.409Z,101246.31
2023-05-07T23:23:07.552Z,101241.94
2023-05-07T23:24:29.938Z,101249.81
2023-05-07T23:25:52.720Z,101250.09
2023-05-07T23:30:53.938Z,101261.91
2023-05-07T23:32:21.197Z,101259.50
2023-05-07T23:33:48.436Z,101254.53
2023-05-07T23:35:34.243Z,101246.88
2023-05-07T23:36:57.098Z,101247.59
2023-05-07T23:38:30.701Z,101253.78
2023-05-07T23:39:57.483Z,101244.19
2023-05-07T23:41:19.950Z,101245.19
2023-05-07T23:42:44.232Z,101250.53
2023-05-07T23:44:06.960Z,101243.34
2023-05-07T23:45:31.596Z,101249.56
2023-05-07T23:46:55.292Z,101247.41
2023-05-07T23:49:05.683Z,101246.16
2023-05-07T23:50:35.228Z,101238.38
2023-05-07T23:51:57.601Z,101230.16
2023-05-07T23:53:19.830Z,101235.13
2023-05-07T23:54:42.017Z,101243.16
2023-05-07T23:56:03.465Z,101236.09
2023-05-07T23:57:25.963Z,101237.19
2023-05-07T23:58:48.408Z,101238.91
